createdAt,value
2022-09-28T00:03:08.948Z,73.13
2022-09-28T00:08:10.500Z,74.15
2022-09-28T00:13:12.010Z,74.24
2022-09-28T00:18:13.539Z,73.29
2022-09-28T00:23:15.154Z,73.26
2022-09-28T00:28:16.674Z,73.40
2022-09-28T00:33:19.219Z,73.78
2022-09-28T00:38:20.816Z,72.79
2022-09-28T00:43:23.796Z,72.49
2022-09-28T00:48:28.285Z,74.16
2022-09-28T00:53:32.039Z,74.12
2022-09-28T00:58:36.477Z,73.10
2022-09-28T01:03:38.750Z,74.64
2022-09-28T01:08:40.554Z,74.45
2022-09-28T01:13:42.243Z,74.17
2022-09-28T01:19:02.528Z,73.92
2022-09-28T01:24:45.451Z,74.17
2022-09-28T01:29:55.909Z,75.29
2022-09-28T01:35:06.870Z,74.93
2022-09-28T01:40:09.555Z,74.07
2022-09-28T01:45:17.070Z,73.72
2022-09-28T01:50:21.642Z,74.96
2022-09-28T01:55:33.938Z,74.13
2022-09-28T02:00:41.731Z,74.79
2022-09-28T02:05:52.701Z,75.47
2022-09-28T02:11:08.082Z,75.54
2022-09-28T02:16:22.034Z,75.97
2022-09-28T02:21:44.558Z,75.85
2022-09-28T02:26:50.150Z,75.27
2022-09-28T02:31:51.872Z,76.30
2022-09-28T02:36:54.239Z,76.46
2022-09-28T02:42:13.018Z,75.70
2022-09-28T02:47:14.585Z,75.84
2022-09-28T02:52:24.912Z,75.13
2022-09-28T02:57:59.643Z,76.39
2022-09-28T03:03:38.327Z,76.51
2022-09-28T03:09:03.764Z,75.67
2022-09-28T03:14:09.316Z,76.36
2022-09-28T03:19:29.338Z,76.23
2022-09-28T03:24:31.031Z,76.84
2022-09-28T03:29:33.102Z,76.54
2022-09-28T03:34:38.601Z,78.36
2022-09-28T03:39:40.631Z,78.26
2022-09-28T03:44:42.251Z,78.16
2022-09-28T03:49:44.208Z,78.97
2022-09-28T03:54:49.043Z,77.34
2022-09-28T03:59:51.131Z,77.34
2022-09-28T04:04:52.741Z,78.03
2022-09-28T04:09:54.867Z,78.13
2022-09-28T04:14:56.553Z,78.81
2022-09-28T04:19:58.109Z,76.74
2022-09-28T04:25:14.792Z,76.04
2022-09-28T04:30:16.925Z,76.53
2022-09-28T04:35:20.154Z,77.12
2022-09-28T04:40:22.322Z,78.30
2022-09-28T04:45:27.001Z,77.72
2022-09-28T04:50:32.428Z,78.75
2022-09-28T04:56:00.313Z,78.08
2022-09-28T05:01:06.816Z,77.62
2022-09-28T05:06:30.582Z,78.06
2022-09-28T05:11:37.372Z,77.64
2022-09-28T05:16:44.593Z,79.01
2022-09-28T05:22:11.516Z,79.79
2022-09-28T05:27:16.746Z,78.95
2022-09-28T05:32:21.774Z,77.89
2022-09-28T05:37:41.190Z,78.25
2022-09-28T05:42:43.238Z,76.17
2022-09-28T05:47:48.245Z,76.84
2022-09-28T05:53:08.388Z,75.81
2022-09-28T05:58:11.617Z,75.04
2022-09-28T06:03:14.296Z,75.71
2022-09-28T06:08:16.029Z,75.13
2022-09-28T06:13:21.727Z,75.81
2022-09-28T06:18:24.043Z,74.98
2022-09-28T06:23:57.701Z,74.53
2022-09-28T06:29:03.393Z,76.96
2022-09-28T06:34:05.084Z,75.97
2022-09-28T06:39:07.443Z,75.15
2022-09-28T06:44:10.756Z,75.60
2022-09-28T06:49:38.680Z,75.81
2022-09-28T06:55:09.217Z,74.14
2022-09-28T07:00:17.019Z,74.06
2022-09-28T07:05:24.111Z,73.77
2022-09-28T07:10:46.058Z,73.78
2022-09-28T07:15:59.612Z,75.11
2022-09-28T07:21:04.236Z,74.44
2022-09-28T07:26:08.587Z,75.02
2022-09-28T07:31:33.695Z,75.91
2022-09-28T07:37:02.230Z,75.03
2022-09-28T07:42:04.051Z,74.87
2022-09-28T07:47:07.041Z,75.30
2022-09-28T07:52:46.573Z,74.89
2022-09-28T07:58:11.126Z,75.25
2022-09-28T08:03:35.415Z,74.87
2022-09-28T08:08:37.072Z,77.14
2022-09-28T08:13:40.085Z,77.39
2022-09-28T08:19:01.976Z,77.42
2022-09-28T08:24:03.709Z,78.36
2022-09-28T08:29:06.425Z,80.65
2022-09-28T08:34:31.096Z,80.62
2022-09-28T08:39:50.918Z,82.26
2022-09-28T08:45:08.406Z,81.19
2022-09-28T08:50:28.714Z,78.38
2022-09-28T08:55:50.406Z,80.04
2022-09-28T09:00:53.090Z,81.27
2022-09-28T09:06:04.500Z,81.14
2022-09-28T09:11:44.329Z,82.63
2022-09-28T09:17:00.920Z,80.04
2022-09-28T09:22:54.916Z,80.27
2022-09-28T09:28:24.087Z,79.51
2022-09-28T09:33:59.012Z,77.71
2022-09-28T09:39:51.281Z,78.31
2022-09-28T09:45:14.641Z,80.22
2022-09-28T09:50:25.191Z,80.80
2022-09-28T09:55:43.383Z,80.76
2022-09-28T10:01:08.646Z,79.47
2022-09-28T10:06:43.627Z,81.56
2022-09-28T10:11:52.057Z,79.05
2022-09-28T10:16:57.142Z,79.70
2022-09-28T10:22:21.094Z,81.23
2022-09-28T10:27:35.193Z,83.27
2022-09-28T10:32:44.985Z,81.66
2022-09-28T10:38:07.729Z,80.41
2022-09-28T10:43:34.548Z,79.06
2022-09-28T10:48:58.885Z,82.11
2022-09-28T10:54:04.382Z,83.07
2022-09-28T10:59:29.616Z,82.29
2022-09-28T11:04:56.288Z,80.57
2022-09-28T11:09:59.581Z,83.05
2022-09-28T11:15:04.531Z,82.00
2022-09-28T11:20:27.983Z,84.81
2022-09-28T11:25:32.703Z,83.54
2022-09-28T11:30:40.794Z,82.64
2022-09-28T11:36:14.740Z,82.53
2022-09-28T11:41:44.173Z,85.44
2022-09-28T11:47:03.914Z,86.44
2022-09-28T11:52:16.636Z,87.37
2022-09-28T11:57:22.337Z,87.91
2022-09-28T12:02:32.903Z,87.64
2022-09-28T12:07:44.254Z,87.13
2022-09-28T12:13:20.179Z,85.84
2022-09-28T12:18:37.846Z,85.83
2022-09-28T12:23:41.596Z,82.28
2022-09-28T12:28:49.110Z,81.57
2022-09-28T12:33:51.697Z,83.99
2022-09-28T12:39:18.137Z,83.58
2022-09-28T12:44:59.499Z,84.89
2022-09-28T12:50:37.537Z,83.40
2022-09-28T12:55:58.057Z,83.15
2022-09-28T13:01:18.927Z,82.04
2022-09-28T13:06:26.178Z,82.03
2022-09-28T13:11:46.916Z,81.93
2022-09-28T13:17:01.374Z,83.55
2022-09-28T13:22:02.854Z,83.44
2022-09-28T13:27:10.339Z,82.53
2022-09-28T13:32:12.796Z,81.75
2022-09-28T13:37:18.873Z,82.04
2022-09-28T13:42:47.556Z,80.56
2022-09-28T13:48:01.735Z,80.01
2022-09-28T13:53:21.631Z,81.47
2022-09-28T13:58:36.701Z,80.70
2022-09-28T14:03:44.747Z,80.06
2022-09-28T14:08:52.101Z,80.78
2022-09-28T14:14:08.673Z,80.20
2022-09-28T14:19:18.193Z,81.06
2022-09-28T14:24:38.877Z,81.88
2022-09-28T14:29:40.592Z,81.89
2022-09-28T14:34:44.267Z,80.00
2022-09-28T14:40:05.274Z,80.64
2022-09-28T14:45:07.274Z,82.33
2022-09-28T14:50:21.174Z,82.42
2022-09-28T14:55:51.879Z,83.64
2022-09-28T15:01:17.214Z,81.88
2022-09-28T15:06:21.422Z,81.51
2022-09-28T15:11:25.280Z,81.64
2022-09-28T15:16:30.563Z,80.13
2022-09-28T15:21:40.194Z,80.57
2022-09-28T15:26:48.087Z,82.13
2022-09-28T15:31:54.137Z,79.41
2022-09-28T15:36:56.417Z,78.10
2022-09-28T15:41:59.485Z,78.77
2022-09-28T15:47:10.958Z,78.01
2022-09-28T15:52:27.594Z,78.17
2022-09-28T15:57:36.933Z,77.74
2022-09-28T16:02:38.611Z,77.06
2022-09-28T16:07:41.564Z,78.75
2022-09-28T16:12:56.441Z,78.19
2022-09-28T16:18:02.887Z,80.33
2022-09-28T16:23:16.860Z,79.23
2022-09-28T16:28:55.290Z,80.13
2022-09-28T16:34:11.526Z,81.52
2022-09-28T16:39:14.597Z,80.40
2022-09-28T16:44:23.558Z,79.67
2022-09-28T16:49:25.611Z,80.00
2022-09-28T16:54:47.466Z,81.56
2022-09-28T16:59:48.987Z,81.50
2022-09-28T17:04:51.274Z,82.20
2022-09-28T17:09:52.839Z,83.06
2022-09-28T17:14:54.843Z,84.04
2022-09-28T17:19:56.386Z,84.43
2022-09-28T17:24:57.897Z,84.03
2022-09-28T17:29:59.433Z,84.84
2022-09-28T17:35:23.203Z,84.57
2022-09-28T17:40:28.372Z,84.33
2022-09-28T17:45:31.345Z,85.03
2022-09-28T17:50:34.898Z,84.86
2022-09-28T17:55:37.996Z,85.13
2022-09-28T18:00:40.240Z,84.38
2022-09-28T18:05:43.327Z,84.28
2022-09-28T18:10:46.970Z,85.10
2022-09-28T18:15:51.467Z,86.01
2022-09-28T18:20:53.283Z,85.10
2022-09-28T18:25:54.791Z,86.49
2022-09-28T18:30:56.692Z,87.53
2022-09-28T18:35:58.260Z,87.39
2022-09-28T18:41:10.193Z,87.58
2022-09-28T18:46:11.853Z,87.19
2022-09-28T18:51:13.754Z,86.50
2022-09-28T18:56:20.899Z,86.86
2022-09-28T19:01:31.039Z,86.46
2022-09-28T19:06:34.390Z,87.13
2022-09-28T19:11:36.380Z,87.37
2022-09-28T19:16:37.911Z,87.43
2022-09-28T19:21:40.627Z,88.97
2022-09-28T19:26:42.520Z,88.14
2022-09-28T19:31:44.076Z,88.24
2022-09-28T19:36:45.605Z,88.82
2022-09-28T19:41:51.353Z,89.74
2022-09-28T19:46:58.495Z,89.20
2022-09-28T19:52:16.177Z,88.37
2022-09-28T19:57:19.530Z,89.78
2022-09-28T20:02:21.430Z,89.84
2022-09-28T20:07:23.003Z,89.41
2022-09-28T20:12:24.714Z,88.28
2022-09-28T20:17:27.476Z,86.90
2022-09-28T20:22:29.397Z,86.60
2022-09-28T20:27:30.924Z,85.83
2022-09-28T20:32:33.320Z,87.88
2022-09-28T20:37:34.821Z,86.52
2022-09-28T20:42:37.704Z,85.79
2022-09-28T20:47:40.505Z,85.90
2022-09-28T20:52:42.074Z,85.44
2022-09-28T20:57:43.913Z,85.62
2022-09-28T21:02:45.504Z,85.56
2022-09-28T21:07:47.059Z,87.78
2022-09-28T21:12:53.058Z,87.02
2022-09-28T21:17:54.556Z,85.65
2022-09-28T21:22:56.128Z,86.71
2022-09-28T21:27:57.626Z,86.45
2022-09-28T21:33:01.428Z,86.35
2022-09-28T21:38:03.586Z,85.24
2022-09-28T21:43:05.227Z,85.23
2022-09-28T21:48:06.969Z,84.61
2022-09-28T21:53:08.476Z,86.38
2022-09-28T21:58:10.099Z,87.34
2022-09-28T22:03:11.762Z,86.03
2022-09-28T22:08:13.349Z,86.10
2022-09-28T22:13:14.981Z,88.99
2022-09-28T22:18:16.566Z,87.80
2022-09-28T22:23:18.094Z,87.64
2022-09-28T22:28:19.609Z,87.47
2022-09-28T22:33:21.218Z,84.27
2022-09-28T22:38:24.306Z,84.93
2022-09-28T22:43:26.717Z,85.75
2022-09-28T22:48:28.396Z,85.47
2022-09-28T22:53:30.125Z,85.66
2022-09-28T22:58:32.782Z,86.47
2022-09-28T23:03:34.837Z,86.52
2022-09-28T23:08:36.593Z,85.36
2022-09-28T23:13:38.364Z,85.35
2022-09-28T23:18:42.773Z,84.28
2022-09-28T23:23:45.610Z,84.85
2022-09-28T23:28:47.322Z,83.83
2022-09-28T23:33:48.918Z,84.76
2022-09-28T23:38:50.450Z,84.01
2022-09-28T23:43:52.080Z,82.85
2022-09-28T23:48:53.770Z,82.46
2022-09-28T23:53:55.348Z,84.21
2022-09-28T23:58:57.011Z,86.05
